createdAt,value
2019-03-06T00:01:25.989Z,1.50
2019-03-06T00:03:56.005Z,1.53
2019-03-06T00:06:25.987Z,1.50
2019-03-06T00:08:56.017Z,1.20
2019-03-06T00:11:26.061Z,1.53
2019-03-06T00:13:56.132Z,1.37
2019-03-06T00:16:26.076Z,1.70
2019-03-06T00:18:55.995Z,1.50
2019-03-06T00:21:26.333Z,1.50
2019-03-06T00:23:56.279Z,1.60
2019-03-06T00:26:26.556Z,1.20
2019-03-06T00:28:56.473Z,1.47
2019-03-06T00:31:26.347Z,1.50
2019-03-06T00:33:56.269Z,1.40
2019-03-06T00:36:26.628Z,1.20
2019-03-06T00:38:56.495Z,1.33
2019-03-06T00:41:28.005Z,1.10
2019-03-06T00:43:57.896Z,1.10
2019-03-06T00:46:27.776Z,1.23
2019-03-06T00:48:57.730Z,1.37
2019-03-06T00:51:28.719Z,1.20
2019-03-06T00:53:58.640Z,1.13
2019-03-06T00:56:28.560Z,1.00
2019-03-06T00:58:58.472Z,1.30
2019-03-06T01:01:28.445Z,1.30
2019-03-06T01:03:58.437Z,1.20
2019-03-06T01:06:28.393Z,1.20
2019-03-06T01:08:58.292Z,1.43
2019-03-06T01:11:28.213Z,1.33
2019-03-06T01:13:58.084Z,1.20
2019-03-06T01:16:27.982Z,1.10
2019-03-06T01:18:58.089Z,1.07
2019-03-06T01:21:28.000Z,1.10
2019-03-06T01:23:57.947Z,1.23
2019-03-06T01:26:28.352Z,1.57
2019-03-06T01:28:58.255Z,1.10
2019-03-06T01:31:28.244Z,1.30
2019-03-06T01:34:05.640Z,1.50
2019-03-06T01:36:37.157Z,1.30
2019-03-06T01:39:17.605Z,1.13
2019-03-06T01:42:04.424Z,1.03
2019-03-06T01:44:35.961Z,1.57
2019-03-06T01:47:06.111Z,1.20
2019-03-06T01:49:36.053Z,1.17
2019-03-06T01:52:05.977Z,1.10
2019-03-06T01:54:36.866Z,1.10
2019-03-06T01:57:06.808Z,1.13
2019-03-06T01:59:36.765Z,1.07
2019-03-06T02:02:06.753Z,1.20
2019-03-06T02:04:36.689Z,0.90
2019-03-06T02:07:08.290Z,1.43
2019-03-06T02:09:38.199Z,1.53
2019-03-06T02:12:08.151Z,1.20
2019-03-06T02:14:38.086Z,0.97
2019-03-06T02:17:08.009Z,1.37
2019-03-06T02:19:37.933Z,1.30
2019-03-06T02:22:08.042Z,1.00
2019-03-06T02:24:38.933Z,1.00
2019-03-06T02:27:08.827Z,1.30
2019-03-06T02:29:38.822Z,1.13
2019-03-06T02:32:08.726Z,1.50
2019-03-06T02:34:38.726Z,1.33
2019-03-06T02:37:08.743Z,1.40
2019-03-06T02:39:38.686Z,1.40
2019-03-06T02:42:08.578Z,1.17
2019-03-06T02:44:40.122Z,1.20
2019-03-06T02:47:10.258Z,1.10
2019-03-06T02:49:40.277Z,1.40
2019-03-06T02:52:11.432Z,1.20
2019-03-06T02:54:42.317Z,1.30
2019-03-06T02:57:12.712Z,1.20
2019-03-06T02:59:44.310Z,1.20
2019-03-06T03:02:27.935Z,1.30
2019-03-06T03:05:02.534Z,1.20
2019-03-06T03:07:33.761Z,1.13
2019-03-06T03:10:04.619Z,1.10
2019-03-06T03:12:34.534Z,1.23
2019-03-06T03:15:06.511Z,1.40
2019-03-06T03:17:36.512Z,1.33
2019-03-06T03:20:08.004Z,1.00
2019-03-06T03:22:39.034Z,1.37
2019-03-06T03:25:08.971Z,1.27
2019-03-06T03:27:38.934Z,1.20
2019-03-06T03:30:11.826Z,1.40
2019-03-06T03:32:41.864Z,1.60
2019-03-06T03:35:11.941Z,1.30
2019-03-06T03:37:41.950Z,1.53
2019-03-06T03:40:14.622Z,1.10
2019-03-06T03:42:44.576Z,1.20
2019-03-06T03:45:17.494Z,1.30
2019-03-06T03:47:47.380Z,1.20
2019-03-06T03:50:17.282Z,1.27
2019-03-06T03:52:47.266Z,1.40
2019-03-06T03:55:18.074Z,1.20
2019-03-06T03:57:47.985Z,1.47
2019-03-06T04:00:19.698Z,1.50
2019-03-06T04:02:49.653Z,1.50
2019-03-06T04:05:19.567Z,1.40
2019-03-06T04:07:49.569Z,1.30
2019-03-06T04:10:19.511Z,1.40
2019-03-06T04:12:49.430Z,1.20
2019-03-06T04:15:19.444Z,1.40
2019-03-06T04:17:49.317Z,1.23
2019-03-06T04:20:19.299Z,1.20
2019-03-06T04:22:49.193Z,1.23
2019-03-06T04:25:19.211Z,1.20
2019-03-06T04:27:49.559Z,1.23
2019-03-06T04:30:20.353Z,1.20
2019-03-06T04:32:50.394Z,1.33
2019-03-06T04:35:20.350Z,0.80
2019-03-06T04:37:51.229Z,1.50
2019-03-06T04:40:21.404Z,1.33
2019-03-06T04:42:51.350Z,1.20
2019-03-06T04:45:21.247Z,1.13
2019-03-06T04:47:51.131Z,1.10
2019-03-06T04:50:21.138Z,1.20
2019-03-06T04:52:51.092Z,0.80
2019-03-06T04:55:21.166Z,1.10
2019-03-06T04:57:51.095Z,1.27
2019-03-06T05:00:22.713Z,1.07
2019-03-06T05:02:53.024Z,1.00
2019-03-06T05:05:22.912Z,1.30
2019-03-06T05:07:52.856Z,1.27
2019-03-06T05:10:22.886Z,0.90
2019-03-06T05:12:52.870Z,0.97
2019-03-06T05:15:22.964Z,1.30
2019-03-06T05:18:10.751Z,1.10
2019-03-06T05:20:41.801Z,1.07
2019-03-06T05:23:11.712Z,1.00
2019-03-06T05:25:41.738Z,1.00
2019-03-06T05:28:11.633Z,1.00
2019-03-06T05:30:42.565Z,1.30
2019-03-06T05:33:16.915Z,1.00
2019-03-06T05:36:01.481Z,1.40
2019-03-06T05:38:47.687Z,1.20
2019-03-06T05:41:17.865Z,1.10
2019-03-06T05:43:47.732Z,0.87
2019-03-06T05:46:17.728Z,1.10
2019-03-06T05:48:47.762Z,1.50
2019-03-06T05:51:17.656Z,1.40
2019-03-06T05:53:47.625Z,1.57
2019-03-06T05:56:17.508Z,1.90
2019-03-06T05:58:47.579Z,1.67
2019-03-06T06:01:17.502Z,1.60
2019-03-06T06:03:47.638Z,1.47
2019-03-06T06:06:17.546Z,1.47
2019-03-06T06:08:48.518Z,1.37
2019-03-06T06:11:18.564Z,1.30
2019-03-06T06:13:49.566Z,1.00
2019-03-06T06:16:19.536Z,1.27
2019-03-06T06:18:49.493Z,1.27
2019-03-06T06:21:23.826Z,1.10
2019-03-06T06:23:55.420Z,1.60
2019-03-06T06:26:25.628Z,1.20
2019-03-06T06:28:55.603Z,1.57
2019-03-06T06:31:25.490Z,1.60
2019-03-06T06:33:55.447Z,1.20
2019-03-06T06:36:25.314Z,1.63
2019-03-06T06:38:55.276Z,1.67
2019-03-06T06:41:25.158Z,1.60
2019-03-06T06:43:55.023Z,1.73
2019-03-06T06:46:24.937Z,1.73
2019-03-06T06:48:54.835Z,1.20
2019-03-06T06:51:45.609Z,1.40
2019-03-06T06:54:30.737Z,1.37
2019-03-06T06:57:13.582Z,1.80
2019-03-06T06:59:46.417Z,1.43
2019-03-06T07:02:35.858Z,1.50
2019-03-06T07:05:28.753Z,1.33
2019-03-06T07:08:03.205Z,1.00
2019-03-06T07:10:53.226Z,0.90
2019-03-06T07:13:36.615Z,1.00
2019-03-06T07:16:11.103Z,1.07
2019-03-06T07:18:42.566Z,1.10
2019-03-06T07:21:30.751Z,1.20
2019-03-06T07:24:17.490Z,1.10
2019-03-06T07:26:51.474Z,1.37
2019-03-06T07:29:31.733Z,1.10
2019-03-06T07:32:09.951Z,1.13
2019-03-06T07:34:50.743Z,1.17
2019-03-06T07:37:31.304Z,1.20
2019-03-06T07:40:02.232Z,0.90
2019-03-06T07:42:39.963Z,1.10
2019-03-06T07:45:43.429Z,1.17
2019-03-06T07:48:29.797Z,1.10
2019-03-06T07:51:07.019Z,0.80
2019-03-06T07:53:52.426Z,0.80
2019-03-06T07:56:24.276Z,1.00
2019-03-06T07:58:55.531Z,1.30
2019-03-06T08:01:34.075Z,1.10
2019-03-06T08:04:07.022Z,1.30
2019-03-06T08:06:37.236Z,1.00
2019-03-06T08:09:10.406Z,1.23
2019-03-06T08:11:45.060Z,1.03
2019-03-06T08:14:28.764Z,1.50
2019-03-06T08:17:16.535Z,1.33
2019-03-06T08:19:48.017Z,1.13
2019-03-06T08:22:19.491Z,1.50
2019-03-06T08:25:07.318Z,1.00
2019-03-06T08:27:37.255Z,1.13
2019-03-06T08:30:12.555Z,1.30
2019-03-06T08:32:42.567Z,1.03
2019-03-06T08:35:12.755Z,1.00
2019-03-06T08:37:42.793Z,0.90
2019-03-06T08:40:13.346Z,1.10
2019-03-06T08:42:43.342Z,1.00
2019-03-06T08:45:16.295Z,1.20
2019-03-06T08:47:48.087Z,1.30
2019-03-06T08:50:28.224Z,1.33
2019-03-06T08:53:14.811Z,0.93
2019-03-06T08:55:49.171Z,0.90
2019-03-06T08:58:37.208Z,1.20
2019-03-06T09:01:20.358Z,0.80
2019-03-06T09:03:58.163Z,0.90
2019-03-06T09:06:32.813Z,0.90
2019-03-06T09:09:07.294Z,0.90
2019-03-06T09:11:42.279Z,1.07
2019-03-06T09:14:28.783Z,1.10
2019-03-06T09:17:03.247Z,1.33
2019-03-06T09:19:47.059Z,1.20
2019-03-06T09:22:21.443Z,1.13
2019-03-06T09:25:05.126Z,1.27
2019-03-06T09:27:36.762Z,1.57
2019-03-06T09:30:16.059Z,1.50
2019-03-06T09:33:04.776Z,1.13
2019-03-06T09:35:52.582Z,1.77
2019-03-06T09:38:30.138Z,1.80
2019-03-06T09:41:17.956Z,1.30
2019-03-06T09:43:52.247Z,1.23
2019-03-06T09:46:23.692Z,1.00
2019-03-06T09:48:55.503Z,1.10
2019-03-06T09:51:43.458Z,1.10
2019-03-06T09:54:15.091Z,1.20
2019-03-06T09:56:46.565Z,1.03
2019-03-06T09:59:18.120Z,1.13
2019-03-06T10:01:52.436Z,0.90
2019-03-06T10:04:24.156Z,1.43
2019-03-06T10:07:11.877Z,1.30
2019-03-06T10:09:58.854Z,1.23
2019-03-06T10:12:25.520Z,1.10
2019-03-06T10:15:09.295Z,1.23
2019-03-06T10:17:40.822Z,1.10
2019-03-06T10:20:24.548Z,1.30
2019-03-06T10:22:46.346Z,1.30
2019-03-06T10:25:16.448Z,1.30
2019-03-06T10:27:46.415Z,1.47
2019-03-06T10:30:18.784Z,1.50
2019-03-06T10:32:48.979Z,1.40
2019-03-06T10:35:18.896Z,1.37
2019-03-06T10:37:49.280Z,1.03
2019-03-06T10:40:19.658Z,1.30
2019-03-06T10:42:49.774Z,1.13
2019-03-06T10:45:20.288Z,1.10
2019-03-06T10:47:50.450Z,1.03
2019-03-06T10:50:26.885Z,1.13
2019-03-06T10:52:54.027Z,1.27
2019-03-06T10:55:24.154Z,1.20
2019-03-06T10:57:54.632Z,1.20
2019-03-06T11:00:28.876Z,1.30
2019-03-06T11:02:59.442Z,1.00
2019-03-06T11:05:31.119Z,0.93
2019-03-06T11:08:01.757Z,0.87
2019-03-06T11:10:34.231Z,1.23
2019-03-06T11:13:08.599Z,1.00
2019-03-06T11:15:39.643Z,0.93
2019-03-06T11:18:10.104Z,1.00
2019-03-06T11:20:40.859Z,0.73
2019-03-06T11:23:12.164Z,0.70
2019-03-06T11:25:43.226Z,0.80
2019-03-06T11:28:13.862Z,0.80
2019-03-06T11:30:55.588Z,0.80
2019-03-06T11:33:26.199Z,1.00
2019-03-06T11:35:59.070Z,0.90
2019-03-06T11:38:29.782Z,1.10
2019-03-06T11:41:01.283Z,0.83
2019-03-06T11:43:31.814Z,0.80
2019-03-06T11:46:02.923Z,1.03
2019-03-06T11:48:33.825Z,1.20
2019-03-06T11:51:04.273Z,1.03
2019-03-06T11:53:34.299Z,1.00
2019-03-06T11:56:04.591Z,1.10
2019-03-06T11:58:34.814Z,1.27
2019-03-06T12:01:07.695Z,1.10
2019-03-06T12:03:37.757Z,1.67
2019-03-06T12:06:07.896Z,2.87
2019-03-06T12:08:45.685Z,2.80
2019-03-06T12:11:09.448Z,1.63
2019-03-06T12:13:39.433Z,1.00
2019-03-06T12:16:09.766Z,1.20
2019-03-06T12:18:39.904Z,0.97
2019-03-06T12:21:09.845Z,0.90
2019-03-06T12:23:40.008Z,0.90
2019-03-06T12:26:10.364Z,0.90
2019-03-06T12:28:40.751Z,1.03
2019-03-06T12:31:10.842Z,0.70
2019-03-06T12:33:40.815Z,0.93
2019-03-06T12:36:10.695Z,1.00
2019-03-06T12:38:40.646Z,0.70
2019-03-06T12:41:12.657Z,0.80
2019-03-06T12:43:45.013Z,0.90
2019-03-06T12:46:23.400Z,1.00
2019-03-06T12:48:54.939Z,0.90
2019-03-06T12:51:25.024Z,0.87
2019-03-06T12:53:54.904Z,1.13
2019-03-06T12:56:24.929Z,1.00
2019-03-06T12:58:54.778Z,0.90
2019-03-06T13:01:24.706Z,1.00
2019-03-06T13:03:54.635Z,1.00
2019-03-06T13:06:25.212Z,0.97
2019-03-06T13:08:56.428Z,0.90
2019-03-06T13:11:26.759Z,1.00
2019-03-06T13:13:56.816Z,0.97
2019-03-06T13:16:26.764Z,0.90
2019-03-06T13:18:56.730Z,1.00
2019-03-06T13:21:26.823Z,1.00
2019-03-06T13:23:56.800Z,1.20
2019-03-06T13:26:26.771Z,0.90
2019-03-06T13:28:57.581Z,0.83
2019-03-06T13:31:27.881Z,0.90
2019-03-06T13:34:02.225Z,0.93
2019-03-06T13:36:32.310Z,1.13
2019-03-06T13:39:06.318Z,0.80
2019-03-06T13:41:35.043Z,1.37
2019-03-06T13:44:05.112Z,0.90
2019-03-06T13:46:35.054Z,1.30
2019-03-06T13:49:05.135Z,1.50
2019-03-06T13:51:35.026Z,1.60
2019-03-06T13:54:05.834Z,1.37
2019-03-06T13:56:38.467Z,1.30
2019-03-06T13:59:11.806Z,1.60
2019-03-06T14:01:41.839Z,1.50
2019-03-06T14:04:11.970Z,1.53
2019-03-06T14:06:42.116Z,2.20
2019-03-06T14:09:13.418Z,1.73
2019-03-06T14:11:43.602Z,1.70
2019-03-06T14:14:13.754Z,1.53
2019-03-06T14:16:43.698Z,1.60
2019-03-06T14:19:13.575Z,2.00
2019-03-06T14:21:43.561Z,1.80
2019-03-06T14:24:13.465Z,1.77
2019-03-06T14:26:43.419Z,1.73
2019-03-06T14:29:13.339Z,1.93
2019-03-06T14:31:43.444Z,2.10
2019-03-06T14:34:13.562Z,1.97
2019-03-06T14:36:43.655Z,1.83
2019-03-06T14:39:22.973Z,2.07
2019-03-06T14:41:53.057Z,1.87
2019-03-06T14:44:23.301Z,1.67
2019-03-06T14:46:53.392Z,3.03
2019-03-06T14:49:24.534Z,2.50
2019-03-06T14:51:54.742Z,6.53
2019-03-06T14:54:24.720Z,2.60
2019-03-06T14:56:54.783Z,1.87
2019-03-06T14:59:24.958Z,2.40
2019-03-06T15:01:54.997Z,1.77
2019-03-06T15:04:25.308Z,2.03
2019-03-06T15:06:55.658Z,2.33
2019-03-06T15:09:26.321Z,2.57
2019-03-06T15:11:56.502Z,2.17
2019-03-06T15:14:35.547Z,2.03
2019-03-06T15:16:58.556Z,1.93
2019-03-06T15:19:28.571Z,2.90
2019-03-06T15:21:58.593Z,2.47
2019-03-06T15:24:28.614Z,2.20
2019-03-06T15:26:58.525Z,1.50
2019-03-06T15:29:28.555Z,2.10
2019-03-06T15:31:58.964Z,2.17
2019-03-06T15:34:29.133Z,2.73
2019-03-06T15:36:59.417Z,2.50
2019-03-06T15:39:31.303Z,2.20
2019-03-06T15:42:02.386Z,2.50
2019-03-06T15:44:33.160Z,2.40
2019-03-06T15:47:03.124Z,2.20
2019-03-06T15:49:33.055Z,2.07
2019-03-06T15:52:03.075Z,2.13
2019-03-06T15:54:33.038Z,2.50
2019-03-06T15:57:06.665Z,2.40
2019-03-06T15:59:36.596Z,2.80
2019-03-06T16:02:06.773Z,2.63
2019-03-06T16:04:37.111Z,3.33
2019-03-06T16:07:07.275Z,3.20
2019-03-06T16:09:38.608Z,2.90
2019-03-06T16:12:08.703Z,3.07
2019-03-06T16:14:38.858Z,3.30
2019-03-06T16:17:08.939Z,3.73
2019-03-06T16:19:38.864Z,3.07
2019-03-06T16:22:08.844Z,3.20
2019-03-06T16:24:38.714Z,3.13
2019-03-06T16:27:08.632Z,2.97
2019-03-06T16:29:38.632Z,3.43
2019-03-06T16:32:08.883Z,3.33
2019-03-06T16:34:38.978Z,4.00
2019-03-06T16:37:09.229Z,2.87
2019-03-06T16:39:39.122Z,3.77
2019-03-06T16:42:09.316Z,3.63
2019-03-06T16:44:39.465Z,4.10
2019-03-06T16:47:09.404Z,3.80
2019-03-06T16:49:39.786Z,3.80
2019-03-06T16:52:09.965Z,3.90
2019-03-06T16:54:40.931Z,5.07
2019-03-06T16:57:10.907Z,5.33
2019-03-06T16:59:40.757Z,5.80
2019-03-06T17:02:10.659Z,5.50
2019-03-06T17:04:40.551Z,4.27
2019-03-06T17:07:10.480Z,5.13
2019-03-06T17:09:40.455Z,5.27
2019-03-06T17:12:10.443Z,5.60
2019-03-06T17:14:40.469Z,4.53
2019-03-06T17:17:10.614Z,5.60
2019-03-06T17:19:41.089Z,5.37
2019-03-06T17:22:11.050Z,5.20
2019-03-06T17:24:40.932Z,6.10
2019-03-06T17:27:10.847Z,5.67
2019-03-06T17:29:41.084Z,6.50
2019-03-06T17:32:11.087Z,6.37
2019-03-06T17:34:41.599Z,7.07
2019-03-06T17:37:11.741Z,7.50
2019-03-06T17:39:41.669Z,7.77
2019-03-06T17:42:12.284Z,6.97
2019-03-06T17:44:42.524Z,7.13
2019-03-06T17:47:12.626Z,8.50
2019-03-06T17:49:42.496Z,5.90
2019-03-06T17:52:12.494Z,7.00
2019-03-06T17:54:42.919Z,6.10
2019-03-06T17:57:13.203Z,7.60
2019-03-06T17:59:43.336Z,7.97
2019-03-06T18:02:13.505Z,7.20
2019-03-06T18:04:43.523Z,8.17
2019-03-06T18:07:13.687Z,7.40
2019-03-06T18:09:44.954Z,7.83
2019-03-06T18:12:16.136Z,7.33
2019-03-06T18:14:46.335Z,5.80
2019-03-06T18:17:16.194Z,6.83
2019-03-06T18:19:46.119Z,7.00
2019-03-06T18:22:16.102Z,7.30
2019-03-06T18:24:45.971Z,6.70
2019-03-06T18:27:15.956Z,5.67
2019-03-06T18:29:46.301Z,5.37
2019-03-06T18:32:16.510Z,5.53
2019-03-06T18:34:46.814Z,5.10
2019-03-06T18:37:17.102Z,4.73
2019-03-06T18:39:47.433Z,4.90
2019-03-06T18:42:17.644Z,4.60
2019-03-06T18:44:47.783Z,4.20
2019-03-06T18:47:18.175Z,4.23
2019-03-06T18:49:48.254Z,4.40
2019-03-06T18:52:18.357Z,4.70
2019-03-06T18:54:48.660Z,4.13
2019-03-06T18:57:18.662Z,4.47
2019-03-06T18:59:49.694Z,4.07
2019-03-06T19:02:19.704Z,5.03
2019-03-06T19:04:50.031Z,4.77
2019-03-06T19:07:20.024Z,4.33
2019-03-06T19:09:50.027Z,5.10
2019-03-06T19:12:19.961Z,4.53
2019-03-06T19:14:49.970Z,5.53
2019-03-06T19:17:20.223Z,6.83
2019-03-06T19:19:50.662Z,8.40
2019-03-06T19:22:20.554Z,8.43
2019-03-06T19:24:50.649Z,7.00
2019-03-06T19:27:20.613Z,7.37
2019-03-06T19:29:50.592Z,7.33
2019-03-06T19:32:20.695Z,6.97
2019-03-06T19:34:50.578Z,6.57
2019-03-06T19:37:20.809Z,6.70
2019-03-06T19:39:50.829Z,6.57
2019-03-06T19:42:20.751Z,6.30
2019-03-06T19:44:50.834Z,5.60
2019-03-06T19:47:21.090Z,6.30
2019-03-06T19:49:51.320Z,6.63
2019-03-06T19:52:21.423Z,5.47
2019-03-06T19:54:51.502Z,7.37
2019-03-06T19:57:21.631Z,5.67
2019-03-06T19:59:51.764Z,6.80
2019-03-06T20:02:21.947Z,6.50
2019-03-06T20:04:51.882Z,6.30
2019-03-06T20:07:21.826Z,5.73
2019-03-06T20:09:54.989Z,5.57
2019-03-06T20:12:24.907Z,5.97
2019-03-06T20:14:55.304Z,5.67
2019-03-06T20:17:25.486Z,6.27
2019-03-06T20:19:55.478Z,5.77
2019-03-06T20:22:25.530Z,6.83
2019-03-06T20:24:55.513Z,6.10
2019-03-06T20:27:25.692Z,6.90
2019-03-06T20:29:55.993Z,6.77
2019-03-06T20:32:25.972Z,6.40
2019-03-06T20:34:55.923Z,6.27
2019-03-06T20:37:26.015Z,5.83
2019-03-06T20:39:56.073Z,5.13
2019-03-06T20:42:25.931Z,5.90
2019-03-06T20:44:56.152Z,5.03
2019-03-06T20:47:26.177Z,4.27
2019-03-06T20:49:56.207Z,5.47
2019-03-06T20:52:26.301Z,5.67
2019-03-06T20:54:56.344Z,5.80
2019-03-06T20:57:26.586Z,5.87
2019-03-06T20:59:56.697Z,6.43
2019-03-06T21:02:27.838Z,5.90
2019-03-06T21:04:58.219Z,5.60
2019-03-06T21:07:28.246Z,5.43
2019-03-06T21:09:58.267Z,4.83
2019-03-06T21:12:29.289Z,5.17
2019-03-06T21:14:59.264Z,4.70
2019-03-06T21:17:29.503Z,4.73
2019-03-06T21:20:00.593Z,4.70
2019-03-06T21:22:30.470Z,4.80
2019-03-06T21:25:00.491Z,4.83
2019-03-06T21:27:30.388Z,5.17
2019-03-06T21:30:00.380Z,4.53
2019-03-06T21:32:30.667Z,4.47
2019-03-06T21:35:00.543Z,4.07
2019-03-06T21:37:30.481Z,4.43
2019-03-06T21:40:00.383Z,4.00
2019-03-06T21:42:30.417Z,4.00
2019-03-06T21:45:00.435Z,4.23
2019-03-06T21:47:30.463Z,3.53
2019-03-06T21:50:00.441Z,3.83
2019-03-06T21:52:31.867Z,4.20
2019-03-06T21:55:01.907Z,4.20
2019-03-06T21:57:33.245Z,4.20
2019-03-06T22:00:03.692Z,4.20
2019-03-06T22:02:33.980Z,3.70
2019-03-06T22:05:04.032Z,3.70
2019-03-06T22:07:35.074Z,3.77
2019-03-06T22:10:07.267Z,3.40
2019-03-06T22:12:37.155Z,3.97
2019-03-06T22:15:10.055Z,3.30
2019-03-06T22:17:40.034Z,3.30
2019-03-06T22:20:12.083Z,3.77
2019-03-06T22:22:43.166Z,3.03
2019-03-06T22:25:17.023Z,3.30
2019-03-06T22:27:47.094Z,3.77
2019-03-06T22:30:22.683Z,3.23
2019-03-06T22:32:52.888Z,3.87
2019-03-06T22:35:22.927Z,4.13
2019-03-06T22:37:52.855Z,3.50
2019-03-06T22:40:22.919Z,3.50
2019-03-06T22:42:53.007Z,3.90
2019-03-06T22:45:23.128Z,3.23
2019-03-06T22:47:53.143Z,3.27
2019-03-06T22:50:23.148Z,3.80
2019-03-06T22:52:53.461Z,3.23
2019-03-06T22:55:24.141Z,3.33
2019-03-06T22:57:54.225Z,3.77
2019-03-06T23:00:30.769Z,4.30
2019-03-06T23:03:02.384Z,3.87
2019-03-06T23:05:37.077Z,3.90
2019-03-06T23:08:06.976Z,3.63
2019-03-06T23:10:36.983Z,2.97
2019-03-06T23:13:07.153Z,3.43
2019-03-06T23:15:37.237Z,3.43
2019-03-06T23:18:07.466Z,3.83
2019-03-06T23:20:37.583Z,3.40
2019-03-06T23:23:07.508Z,3.13
2019-03-06T23:25:37.607Z,3.33
2019-03-06T23:28:07.746Z,3.10
2019-03-06T23:30:37.863Z,2.80
2019-03-06T23:33:07.935Z,2.97
2019-03-06T23:35:37.821Z,3.07
2019-03-06T23:38:07.739Z,2.67
2019-03-06T23:40:37.792Z,3.17
2019-03-06T23:43:08.027Z,3.10
2019-03-06T23:45:38.026Z,3.20
2019-03-06T23:48:08.011Z,3.63
2019-03-06T23:50:37.995Z,3.00
2019-03-06T23:53:09.424Z,2.97
2019-03-06T23:55:39.624Z,3.00
2019-03-06T23:58:09.525Z,3.03
